Hauptseite
METAR-TAF:

METAR-TAF

Flughäfen :

Flughafen Caracas

Caracas, Venezuela

Breite: 10-36N, Länge: 066-59W, Höhe: 43 m

Beobachtung

Neuester Wetterbericht von vor 5 Stunden und 18 Minuten, um 23:00 UTC
Temperatur 27°C
Luftfeuchtigkeit 84%
Luftdruck 1004 hPa
Sichtweite 10 km oder mehr
Aufgelockert bewölkt in der Höhe von 1600 ft

METAR: SVMI 222300Z 07004T 9999 SCT016 27/24 Q1004

Zeit: 00:18 (04:18 UTC)

Prognose

Neuester Wetterbericht von vor 6 Stunden und 18 Minuten, um 22:00 UTC
Gültige Prognose vom 23 um 00 UTC bis 24 um 00 UTC
Wind 7 kt aus Ost
Sichtweite 10 km oder mehr
Aufgelockert bewölkt in der Höhe von 1600 ft
Übergehend zu
vom 23 um 02 UTC bis 23 um 07 UTC
Wind kt aus Nord
Sichtweite 10 km oder mehr
Leicht bewölkt in der Höhe von 1600 ft
Aufgelockert bewölkt in der Höhe von 7000 ft

TAF: SVMI 222200Z 2300/2400 09007KT 9999 SCT016 TX33/19Z TN25/09Z BECMG 2302/2307 00000KT 9999 FEW016 SCT070

Wetterbeobachtungen und Prognosen von mehr als 4000 Flughäfen (METAR und TAF Bericht).

Die verfügbaren Stationen werden durch gelbe und rote Markierungen auf der Karte dargestellt.

Führen Sie die Maus auf sie, um den Namen der Station zu sehen.

Darauf klicken, um die Beobachtung von Wetterbeobachtungen und Prognosen zu sehen.

Um die Karte zu ändern : klicken Sie auf den grünen Tasten mit einem schwarzen Kreuz Zum Vergrößern, auf den grünen Button mit einem Gedankenstrich zu verkleinern, oder auf die grünen Pfeile für benachbarte Karten.


METAR-TAF: